createdAt,value
2019-02-23T00:03:02.298Z,64.39
2019-02-23T00:08:06.339Z,64.26
2019-02-23T00:13:10.563Z,64.93
2019-02-23T00:18:14.608Z,64.80
2019-02-23T00:23:18.686Z,64.61
2019-02-23T00:28:22.712Z,64.61
2019-02-23T00:33:26.831Z,64.78
2019-02-23T00:38:30.925Z,64.78
2019-02-23T00:43:35.202Z,64.57
2019-02-23T00:48:39.274Z,64.57
2019-02-23T00:53:43.413Z,65.08
2019-02-23T00:58:47.572Z,64.99
2019-02-23T01:03:51.692Z,64.99
2019-02-23T01:08:55.814Z,64.79
2019-02-23T01:14:00.021Z,64.81
2019-02-23T01:19:04.057Z,64.91
2019-02-23T01:24:08.228Z,65.04
2019-02-23T01:29:12.450Z,64.71
2019-02-23T01:34:16.469Z,65.06
2019-02-23T01:39:20.513Z,64.84
2019-02-23T01:44:24.563Z,64.84
2019-02-23T01:49:28.621Z,64.85
2019-02-23T01:54:32.736Z,64.85
2019-02-23T01:59:36.779Z,65.02
2019-02-23T02:04:40.887Z,65.02
2019-02-23T02:09:45.171Z,65.12
2019-02-23T02:14:49.242Z,65.41
2019-02-23T02:19:53.352Z,65.58
2019-02-23T02:24:57.375Z,65.66
2019-02-23T02:30:01.454Z,65.25
2019-02-23T02:35:07.069Z,65.25
2019-02-23T02:40:11.196Z,65.89
2019-02-23T02:45:15.289Z,65.63
2019-02-23T02:50:24.194Z,65.86
2019-02-23T02:55:25.091Z,65.92
2019-02-23T03:00:29.184Z,65.92
2019-02-23T03:05:33.292Z,66.08
2019-02-23T03:10:37.409Z,66.26
2019-02-23T03:15:41.535Z,66.28
2019-02-23T03:20:45.574Z,66.11
2019-02-23T03:25:49.597Z,66.36
2019-02-23T03:30:53.704Z,66.36
2019-02-23T03:35:57.733Z,66.20
2019-02-23T03:41:01.941Z,66.20
2019-02-23T03:46:06.045Z,66.45
2019-02-23T03:51:10.150Z,66.40
2019-02-23T03:56:14.223Z,66.60
2019-02-23T04:01:18.378Z,66.81
2019-02-23T04:06:22.433Z,67.12
2019-02-23T04:11:26.551Z,66.92
2019-02-23T04:16:30.591Z,66.80
2019-02-23T04:21:34.720Z,67.05
2019-02-23T04:26:38.753Z,66.92
2019-02-23T04:31:42.794Z,67.41
2019-02-23T04:36:46.808Z,67.34
2019-02-23T04:41:50.876Z,67.63
2019-02-23T04:46:54.989Z,67.34
2019-02-23T04:51:59.087Z,67.34
2019-02-23T04:57:03.116Z,67.38
2019-02-23T05:02:07.261Z,67.73
2019-02-23T05:07:11.289Z,67.36
2019-02-23T05:12:15.363Z,67.68
2019-02-23T05:17:19.544Z,67.88
2019-02-23T05:22:23.648Z,67.88
2019-02-23T05:27:28.154Z,67.63
2019-02-23T05:32:32.218Z,68.05
2019-02-23T05:37:36.228Z,67.59
2019-02-23T05:42:40.260Z,67.59
2019-02-23T05:47:44.297Z,67.75
2019-02-23T05:52:48.313Z,67.86
2019-02-23T05:57:52.334Z,67.87
2019-02-23T06:02:59.424Z,67.67
2019-02-23T06:08:03.451Z,67.94
2019-02-23T06:13:07.540Z,67.94
2019-02-23T06:18:11.565Z,68.03
2019-02-23T06:23:15.594Z,68.28
2019-02-23T06:28:19.620Z,67.84
2019-02-23T06:33:23.722Z,67.91
2019-02-23T06:38:27.772Z,68.20
2019-02-23T06:43:31.802Z,68.39
2019-02-23T06:48:35.839Z,68.14
2019-02-23T06:53:39.863Z,68.17
2019-02-23T06:58:43.878Z,68.16
2019-02-23T07:03:47.907Z,68.06
2019-02-23T07:08:52.037Z,68.36
2019-02-23T07:13:56.089Z,68.44
2019-02-23T07:19:00.111Z,68.41
2019-02-23T07:24:04.279Z,68.41
2019-02-23T07:29:08.394Z,68.35
2019-02-23T07:34:12.439Z,68.29
2019-02-23T07:39:16.742Z,68.38
2019-02-23T07:44:20.773Z,68.55
2019-02-23T07:49:24.800Z,68.16
2019-02-23T07:54:28.830Z,49.82
2019-02-23T07:59:32.948Z,45.75
2019-02-23T08:04:37.091Z,46.94
2019-02-23T08:09:41.195Z,46.47
2019-02-23T08:14:45.225Z,47.22
2019-02-23T08:19:49.256Z,48.07
2019-02-23T08:24:53.315Z,50.08
2019-02-23T08:29:57.348Z,52.22
2019-02-23T08:35:01.415Z,53.13
2019-02-23T08:40:06.516Z,53.13
2019-02-23T08:45:10.745Z,54.16
2019-02-23T08:50:14.861Z,54.79
2019-02-23T08:55:18.989Z,55.27
2019-02-23T09:00:23.015Z,55.27
2019-02-23T09:05:27.053Z,55.86
2019-02-23T09:10:31.068Z,56.89
2019-02-23T09:15:35.162Z,57.21
2019-02-23T09:20:39.322Z,57.21
2019-02-23T09:25:43.347Z,58.41
2019-02-23T09:30:47.380Z,59.02
2019-02-23T09:35:51.412Z,59.33
2019-02-23T09:40:55.449Z,59.27
2019-02-23T09:45:59.480Z,59.53
2019-02-23T09:51:03.603Z,59.38
2019-02-23T09:56:07.729Z,59.40
2019-02-23T10:01:11.804Z,59.90
2019-02-23T10:06:15.844Z,59.90
2019-02-23T10:11:19.924Z,60.59
2019-02-23T10:16:24.035Z,60.19
2019-02-23T10:21:28.173Z,60.19
2019-02-23T10:26:32.301Z,60.99
2019-02-23T10:31:36.393Z,60.74
2019-02-23T10:36:40.498Z,61.19
2019-02-23T10:41:44.526Z,61.55
2019-02-23T10:46:48.638Z,61.97
2019-02-23T10:51:52.779Z,62.00
2019-02-23T10:56:56.893Z,62.08
2019-02-23T11:02:01.111Z,62.05
2019-02-23T11:07:05.296Z,62.05
2019-02-23T11:12:09.486Z,61.79
2019-02-23T11:17:13.708Z,62.06
2019-02-23T11:22:17.859Z,62.37
2019-02-23T11:27:22.083Z,63.06
2019-02-23T11:32:26.140Z,62.81
2019-02-23T11:37:30.249Z,63.14
2019-02-23T11:42:34.287Z,63.10
2019-02-23T11:47:38.425Z,62.85
2019-02-23T11:52:42.552Z,63.23
2019-02-23T11:57:46.594Z,62.94
2019-02-23T12:02:52.714Z,62.89
2019-02-23T12:07:56.490Z,63.07
2019-02-23T12:13:00.548Z,62.72
2019-02-23T12:18:04.655Z,62.72
2019-02-23T12:23:08.705Z,62.66
2019-02-23T12:28:12.821Z,62.66
2019-02-23T12:33:16.883Z,62.34
2019-02-23T12:38:20.933Z,62.64
2019-02-23T12:43:25.130Z,62.01
2019-02-23T12:48:29.246Z,62.22
2019-02-23T12:53:33.324Z,62.18
2019-02-23T12:58:37.365Z,62.18
2019-02-23T13:03:41.489Z,62.15
2019-02-23T13:09:20.619Z,62.23
2019-02-23T13:14:42.953Z,62.00
2019-02-23T13:20:10.467Z,62.00
2019-02-23T13:25:37.351Z,62.48
2019-02-23T13:31:47.026Z,62.20
2019-02-23T13:37:35.811Z,62.49
2019-02-23T13:43:03.073Z,62.54
2019-02-23T13:48:32.569Z,62.94
2019-02-23T13:54:00.260Z,62.75
2019-02-23T13:59:36.663Z,63.17
2019-02-23T14:05:11.938Z,62.92
2019-02-23T14:10:24.840Z,62.92
2019-02-23T14:15:50.470Z,62.63
2019-02-23T14:21:28.431Z,63.17
2019-02-23T14:27:09.548Z,63.53
2019-02-23T14:32:51.941Z,63.53
2019-02-23T14:38:30.828Z,63.82
2019-02-23T14:44:17.238Z,63.82
2019-02-23T14:49:46.817Z,63.86
2019-02-23T14:55:29.675Z,63.86
2019-02-23T15:01:11.404Z,63.50
2019-02-23T15:06:34.457Z,63.50
2019-02-23T15:12:09.722Z,63.77
2019-02-23T15:17:25.402Z,63.53
2019-02-23T15:23:24.797Z,63.77
2019-02-23T15:28:44.150Z,63.77
2019-02-23T15:34:29.544Z,63.48
2019-02-23T15:39:56.827Z,63.59
2019-02-23T15:45:40.101Z,64.26
2019-02-23T15:50:44.124Z,64.04
2019-02-23T15:55:48.180Z,64.04
2019-02-23T16:00:52.429Z,64.04
2019-02-23T16:05:56.617Z,64.17
2019-02-23T16:11:00.713Z,63.60
2019-02-23T16:16:04.846Z,62.85
2019-02-23T16:21:08.940Z,62.76
2019-02-23T16:26:13.173Z,62.66
2019-02-23T16:31:17.424Z,62.09
2019-02-23T16:36:21.696Z,63.70
2019-02-23T16:41:25.740Z,63.70
2019-02-23T16:46:29.763Z,63.94
2019-02-23T16:51:33.890Z,63.94
2019-02-23T16:56:37.955Z,64.99
2019-02-23T17:01:41.976Z,64.08
2019-02-23T17:06:46.001Z,63.97
2019-02-23T17:11:50.064Z,63.97
2019-02-23T17:16:54.291Z,62.44
2019-02-23T17:21:58.693Z,62.24
2019-02-23T17:27:02.882Z,62.89
2019-02-23T17:32:07.106Z,62.65
2019-02-23T17:37:11.364Z,61.87
2019-02-23T17:42:27.498Z,61.87
2019-02-23T17:47:21.334Z,61.74
2019-02-23T17:52:25.737Z,61.54
2019-02-23T17:57:29.814Z,61.74
2019-02-23T18:02:34.211Z,60.18
2019-02-23T18:07:38.307Z,59.67
2019-02-23T18:12:42.487Z,59.78
2019-02-23T18:17:46.685Z,60.14
2019-02-23T18:22:50.752Z,60.14
2019-02-23T18:27:55.182Z,60.60
2019-02-23T18:32:59.430Z,61.18
2019-02-23T18:38:03.640Z,60.78
2019-02-23T18:43:07.886Z,61.71
2019-02-23T18:53:15.086Z,61.31
2019-02-23T18:58:19.316Z,60.70
2019-02-23T19:03:23.530Z,60.42
2019-02-23T19:08:27.663Z,60.42
2019-02-23T19:13:31.757Z,59.94
2019-02-23T19:18:35.873Z,59.85
2019-02-23T19:23:39.919Z,60.18
2019-02-23T19:28:44.073Z,60.36
2019-02-23T19:33:48.182Z,60.66
2019-02-23T19:38:52.352Z,60.57
2019-02-23T19:43:56.521Z,60.73
2019-02-23T19:49:01.911Z,59.47
2019-02-23T19:54:06.229Z,59.42
2019-02-23T19:59:10.309Z,59.40
2019-02-23T20:04:14.437Z,59.25
2019-02-23T20:09:18.678Z,59.25
2019-02-23T20:14:22.737Z,59.82
2019-02-23T20:19:26.803Z,60.35
2019-02-23T20:24:31.017Z,60.39
2019-02-23T20:29:37.054Z,60.34
2019-02-23T20:34:41.499Z,59.00
2019-02-23T20:39:45.669Z,58.09
2019-02-23T20:44:49.971Z,57.96
2019-02-23T20:49:54.132Z,57.72
2019-02-23T20:54:58.222Z,58.94
2019-02-23T21:00:02.382Z,60.38
2019-02-23T21:05:07.584Z,60.38
2019-02-23T21:10:11.840Z,60.87
2019-02-23T21:15:15.884Z,61.51
2019-02-23T21:20:19.927Z,61.48
2019-02-23T21:25:24.121Z,61.28
2019-02-23T21:30:28.157Z,61.91
2019-02-23T21:35:33.650Z,61.73
2019-02-23T21:40:37.814Z,62.02
2019-02-23T21:45:42.030Z,62.08
2019-02-23T21:50:46.080Z,62.13
2019-02-23T21:55:50.251Z,62.40
2019-02-23T22:00:54.414Z,62.03
2019-02-23T22:05:58.524Z,62.82
2019-02-23T22:11:02.606Z,62.41
2019-02-23T22:16:06.847Z,62.41
2019-02-23T22:21:11.062Z,62.93
2019-02-23T22:26:15.424Z,63.09
2019-02-23T22:31:19.452Z,62.97
2019-02-23T22:36:23.595Z,62.93
2019-02-23T22:41:27.730Z,62.94
2019-02-23T22:46:31.772Z,62.94
2019-02-23T22:51:35.793Z,62.76
2019-02-23T22:56:39.884Z,63.10
2019-02-23T23:01:44.158Z,63.10
2019-02-23T23:06:48.388Z,63.01
2019-02-23T23:11:52.564Z,62.94
2019-02-23T23:16:56.751Z,63.49
2019-02-23T23:22:00.959Z,63.43
2019-02-23T23:27:05.160Z,63.43
2019-02-23T23:32:09.242Z,63.49
2019-02-23T23:37:13.319Z,63.55
2019-02-23T23:42:17.634Z,63.55
2019-02-23T23:47:21.749Z,63.77
2019-02-23T23:52:25.857Z,63.87
2019-02-23T23:57:30.299Z,64.06
